»·PEaware :: JUS326 KSLC-KJAC

JUS326 :: KSLC-KJAC

FLIGHT INFORMATION

Flight Status: Arrived
Operator:
USA Jet
More flights by this operator :: More flights under this callsign
Pilot: Erik S. (3779)
Aircraft: BOEING 737-300
(B733)
More flights by this aircraft type
Origin: KSLC Salt Lake City Intl
United States
Destination: KJAC Jackson Hole
United States
More flights between these airports :: More routes between these airports
Route: LEETZ6 HOLTR
File this flight plan on PilotEdge
Remarks:
Altitude:
(Current/Filed)
27,000ft
Speed:
(Current/Filed)
400kts
Departed: 07-Feb-18 04:30 PM
Arrived: 07-Feb-18 05:17 PM
Distance/Time
Traveled:
178nm/0:46
Distance/Time
To Go:
Arrived

Flight Plot

Page will automatically refresh every two minutes.

Flight plan parsing failed; only flown route is shown


Map Options




Map Legend


Flown Route
Filed Route
Departure Airport
Arrival Airport
Navaid (VOR, NDB)
Fix

Horizontal Profiles

Position Reports

Time Latitude Longitude Heading Altitude Ground
Speed
07-Feb-18 16:27 40.802615 -111.981479 352 4234ft 0kts
07-Feb-18 16:28 40.802615 -111.981479 352 4234ft 0kts
07-Feb-18 16:29 40.802615 -111.981479 352 4234ft 0kts
07-Feb-18 16:30 40.802615 -111.981479 352 4234ft 0kts
07-Feb-18 16:30 40.802615 -111.981479 352 4234ft 0kts
07-Feb-18 16:32 40.802615 -111.981479 352 4234ft 0kts
07-Feb-18 16:33 40.802615 -111.981479 352 4234ft 0kts
07-Feb-18 16:34 40.803751 -111.980393 60 4234ft 13kts
07-Feb-18 16:34 40.806916 -111.980037 0 4234ft 8kts
07-Feb-18 16:35 40.807437 -111.978616 85 4234ft 3kts
07-Feb-18 16:37 40.788498 -111.974633 175 4396ft 173kts
07-Feb-18 16:37 40.752797 -111.989429 236 6978ft 185kts
07-Feb-18 16:38 40.750850 -112.062524 310 9250ft 234kts
07-Feb-18 16:39 40.806313 -112.132455 317 11018ft 319kts
07-Feb-18 16:40 40.863490 -112.203796 316 16098ft 266kts
07-Feb-18 16:41 40.931398 -112.237503 352 18888ft 279kts
07-Feb-18 16:42 41.006448 -112.221913 44 21395ft 311kts
07-Feb-18 16:43 41.031238 -112.104323 58 22987ft 352kts
07-Feb-18 16:44 41.094699 -112.006243 40 24731ft 358kts
07-Feb-18 16:45 41.162331 -111.906940 39 26582ft 368kts
07-Feb-18 16:46 41.236756 -111.816333 20 27413ft 371kts
07-Feb-18 16:47 41.333324 -111.748173 22 27387ft 416kts
07-Feb-18 16:48 41.442649 -111.688375 10 27425ft 431kts
07-Feb-18 16:49 41.556878 -111.643423 11 27412ft 432kts
07-Feb-18 16:50 41.671332 -111.597762 11 27423ft 432kts
07-Feb-18 16:51 41.785635 -111.551858 11 27423ft 432kts
07-Feb-18 16:52 41.902038 -111.523663 4 27424ft 427kts
07-Feb-18 16:53 42.019127 -111.497251 4 27423ft 427kts
07-Feb-18 16:54 42.134820 -111.470984 4 27420ft 427kts
07-Feb-18 16:55 42.251034 -111.444499 4 27406ft 426kts
07-Feb-18 16:56 42.365397 -111.399737 15 27402ft 435kts
07-Feb-18 16:57 42.477683 -111.340750 15 27394ft 434kts
07-Feb-18 16:58 42.588781 -111.282669 15 27380ft 433kts
07-Feb-18 16:59 42.700851 -111.223860 15 27394ft 434kts
07-Feb-18 17:00 42.813339 -111.164679 15 27423ft 435kts
07-Feb-18 17:01 42.925451 -111.105239 15 25892ft 435kts
07-Feb-18 17:02 43.037038 -111.045941 14 24093ft 430kts
07-Feb-18 17:03 43.147104 -110.987230 14 22301ft 424kts
07-Feb-18 17:04 43.255891 -110.928982 14 20501ft 417kts
07-Feb-18 17:05 43.362636 -110.872044 15 18698ft 408kts
07-Feb-18 17:06 43.460575 -110.820064 15 16870ft 353kts
07-Feb-18 17:07 43.544882 -110.774573 17 16008ft 289kts
07-Feb-18 17:08 43.613474 -110.733280 16 15969ft 272kts
07-Feb-18 17:09 43.683390 -110.694693 14 15163ft 267kts
07-Feb-18 17:10 43.754246 -110.661729 12 15205ft 268kts
07-Feb-18 17:11 43.823331 -110.629905 12 15238ft 240kts
07-Feb-18 17:12 43.884130 -110.601040 1 15184ft 223kts
07-Feb-18 17:13 43.927993 -110.640896 343 13929ft 209kts
07-Feb-18 17:14 43.954010 -110.584915 129 13068ft 222kts
07-Feb-18 17:15 43.902716 -110.579556 215 11799ft 191kts
07-Feb-18 17:16 43.858600 -110.615950 209 10941ft 183kts
07-Feb-18 17:17 43.810635 -110.639624 202 9664ft 183kts
07-Feb-18 17:18 43.762635 -110.662064 203 9796ft 172kts
07-Feb-18 17:19 43.721400 -110.682244 204 8802ft 146kts
07-Feb-18 17:20 43.686598 -110.699278 204 7977ft 128kts
07-Feb-18 17:21 43.653376 -110.715448 203 7286ft 126kts
07-Feb-18 17:22 43.620500 -110.731357 201 6627ft 123kts
07-Feb-18 17:23 43.603453 -110.737493 113 6458ft 23kts

Navigation Log

Ident Type
Flight plan parsing failed, navigation log unavailable